createdAt,value
2019-03-21T00:00:49.753Z,7.90
2019-03-21T00:03:19.265Z,7.90
2019-03-21T00:05:52.331Z,7.90
2019-03-21T00:08:21.875Z,7.90
2019-03-21T00:11:27.025Z,7.90
2019-03-21T00:14:06.881Z,7.80
2019-03-21T00:16:30.965Z,7.80
2019-03-21T00:19:01.251Z,7.80
2019-03-21T00:21:30.961Z,7.70
2019-03-21T00:24:00.673Z,7.70
2019-03-21T00:26:31.341Z,7.70
2019-03-21T00:29:01.324Z,7.60
2019-03-21T00:31:30.959Z,7.70
2019-03-21T00:34:01.046Z,7.70
2019-03-21T00:36:30.749Z,7.70
2019-03-21T00:39:01.445Z,7.70
2019-03-21T00:41:31.035Z,7.70
2019-03-21T00:44:00.390Z,7.80
2019-03-21T00:46:30.089Z,7.80
2019-03-21T00:48:59.771Z,7.90
2019-03-21T00:51:29.735Z,8.00
2019-03-21T00:54:02.528Z,8.00
2019-03-21T00:56:32.033Z,8.00
2019-03-21T00:59:01.858Z,8.10
2019-03-21T01:01:31.370Z,8.10
2019-03-21T01:04:01.368Z,8.20
2019-03-21T01:06:30.726Z,8.20
2019-03-21T01:09:00.284Z,8.20
2019-03-21T01:11:30.501Z,8.20
2019-03-21T01:14:00.176Z,8.30
2019-03-21T01:19:05.150Z,8.40
2019-03-21T01:21:34.519Z,8.40
2019-03-21T01:24:04.017Z,8.40
2019-03-21T01:26:34.986Z,8.40
2019-03-21T01:29:04.728Z,8.50
2019-03-21T01:31:34.182Z,8.50
2019-03-21T01:34:04.140Z,8.50
2019-03-21T01:36:33.748Z,8.50
2019-03-21T01:39:03.944Z,8.50
2019-03-21T01:41:33.643Z,8.60
2019-03-21T01:44:03.310Z,8.60
2019-03-21T01:46:33.068Z,8.60
2019-03-21T01:49:05.553Z,8.50
2019-03-21T01:51:37.027Z,8.50
2019-03-21T01:54:06.708Z,8.40
2019-03-21T01:56:37.301Z,8.30
2019-03-21T01:59:07.183Z,8.20
2019-03-21T02:01:36.774Z,8.20
2019-03-21T02:04:09.240Z,8.10
2019-03-21T02:06:38.841Z,8.00
2019-03-21T02:09:09.455Z,8.00
2019-03-21T02:11:42.062Z,7.90
2019-03-21T02:14:11.587Z,7.90
2019-03-21T02:16:41.070Z,7.80
2019-03-21T02:19:10.397Z,7.70
2019-03-21T02:21:39.858Z,7.70
2019-03-21T02:24:09.985Z,7.60
2019-03-21T02:26:40.261Z,7.60
2019-03-21T02:29:09.727Z,7.60
2019-03-21T02:31:40.813Z,7.50
2019-03-21T02:34:11.448Z,7.50
2019-03-21T02:36:42.106Z,7.50
2019-03-21T02:39:14.794Z,7.40
2019-03-21T02:41:44.671Z,7.40
2019-03-21T02:44:14.117Z,7.40
2019-03-21T02:46:45.589Z,7.40
2019-03-21T02:49:14.967Z,7.40
2019-03-21T02:51:44.663Z,7.30
2019-03-21T02:54:14.082Z,7.30
2019-03-21T02:56:45.043Z,7.30
2019-03-21T02:59:14.498Z,7.20
2019-03-21T03:01:44.527Z,7.20
2019-03-21T03:04:15.050Z,7.20
2019-03-21T03:06:44.760Z,7.20
2019-03-21T03:09:14.178Z,7.20
2019-03-21T03:11:43.893Z,7.10
2019-03-21T03:16:49.858Z,7.10
2019-03-21T03:19:19.584Z,7.10
2019-03-21T03:21:50.713Z,7.10
2019-03-21T03:24:21.880Z,7.10
2019-03-21T03:26:51.789Z,7.10
2019-03-21T03:29:22.182Z,7.10
2019-03-21T03:31:53.153Z,7.00
2019-03-21T03:34:22.695Z,7.00
2019-03-21T03:36:52.262Z,7.00
2019-03-21T03:39:21.889Z,7.00
2019-03-21T03:41:51.290Z,6.90
2019-03-21T03:44:21.241Z,7.00
2019-03-21T03:46:51.728Z,6.90
2019-03-21T03:49:21.165Z,6.90
2019-03-21T03:51:50.582Z,6.90
2019-03-21T03:54:20.065Z,6.90
2019-03-21T03:56:50.280Z,6.90
2019-03-21T03:59:19.836Z,6.90
2019-03-21T04:01:50.779Z,6.90
2019-03-21T04:04:23.879Z,6.80
2019-03-21T04:06:53.301Z,6.80
2019-03-21T04:09:23.017Z,6.80
2019-03-21T04:11:52.763Z,6.80
2019-03-21T04:14:22.530Z,6.80
2019-03-21T04:16:52.984Z,6.80
2019-03-21T04:19:22.513Z,6.80
2019-03-21T04:21:52.794Z,6.80
2019-03-21T04:24:23.200Z,6.80
2019-03-21T04:26:52.682Z,6.80
2019-03-21T04:29:22.186Z,6.80
2019-03-21T04:31:51.692Z,6.80
2019-03-21T04:34:23.020Z,6.80
2019-03-21T04:36:52.424Z,6.70
2019-03-21T04:39:21.836Z,6.70
2019-03-21T04:41:51.289Z,6.70
2019-03-21T04:44:21.991Z,6.70
2019-03-21T04:46:51.412Z,6.70
2019-03-21T04:49:21.561Z,6.70
2019-03-21T04:52:21.574Z,6.70
2019-03-21T04:54:53.990Z,6.60
2019-03-21T04:57:23.332Z,6.70
2019-03-21T04:59:52.721Z,6.60
2019-03-21T05:02:22.089Z,6.60
2019-03-21T05:04:51.440Z,6.60
2019-03-21T05:07:22.825Z,6.70
2019-03-21T05:09:52.637Z,6.60
2019-03-21T05:14:57.630Z,6.70
2019-03-21T05:17:27.074Z,6.70
2019-03-21T05:19:56.486Z,6.70
2019-03-21T05:22:26.273Z,6.70
2019-03-21T05:24:55.615Z,6.70
2019-03-21T05:27:31.724Z,6.70
2019-03-21T05:30:02.228Z,6.70
2019-03-21T05:32:31.720Z,6.70
2019-03-21T05:35:01.410Z,6.70
2019-03-21T05:37:30.766Z,6.80
2019-03-21T05:40:02.403Z,6.70
2019-03-21T05:42:31.848Z,6.70
2019-03-21T05:45:01.275Z,6.80
2019-03-21T05:47:30.902Z,6.80
2019-03-21T05:50:00.421Z,6.80
2019-03-21T05:52:30.754Z,6.80
2019-03-21T05:55:17.812Z,6.80
2019-03-21T05:57:47.272Z,6.80
2019-03-21T06:00:30.647Z,6.80
2019-03-21T06:03:02.166Z,6.80
2019-03-21T06:05:32.200Z,6.80
2019-03-21T06:08:12.302Z,6.70
2019-03-21T06:10:41.802Z,6.70
2019-03-21T06:13:11.486Z,6.70
2019-03-21T06:15:43.154Z,6.70
2019-03-21T06:18:53.306Z,6.80
2019-03-21T06:21:33.482Z,6.80
2019-03-21T06:24:16.071Z,6.80
2019-03-21T06:26:53.372Z,6.90
2019-03-21T06:29:26.636Z,7.00
2019-03-21T06:31:56.485Z,7.10
2019-03-21T06:34:26.220Z,7.10
2019-03-21T06:36:55.686Z,7.20
2019-03-21T06:39:25.300Z,7.30
2019-03-21T06:41:54.753Z,7.40
2019-03-21T06:44:24.200Z,7.50
2019-03-21T06:46:54.528Z,7.60
2019-03-21T06:49:24.773Z,7.60
2019-03-21T06:51:54.536Z,7.70
2019-03-21T06:54:25.688Z,7.70
2019-03-21T06:56:56.214Z,7.70
2019-03-21T06:59:25.654Z,7.80
2019-03-21T07:01:55.454Z,7.80
2019-03-21T07:04:25.665Z,7.80
2019-03-21T07:06:55.112Z,7.80
2019-03-21T07:09:29.180Z,7.90
2019-03-21T07:11:59.456Z,7.90
2019-03-21T07:14:28.840Z,8.00
2019-03-21T07:17:00.579Z,8.00
2019-03-21T07:19:30.354Z,8.10
2019-03-21T07:21:59.833Z,8.10
2019-03-21T07:24:31.381Z,8.20
2019-03-21T07:27:00.889Z,8.20
2019-03-21T07:29:36.750Z,8.30
2019-03-21T07:32:06.592Z,8.30
2019-03-21T07:34:36.999Z,8.30
2019-03-21T07:37:06.873Z,8.30
2019-03-21T07:39:36.708Z,8.30
2019-03-21T07:42:06.577Z,8.40
2019-03-21T07:44:35.953Z,8.40
2019-03-21T07:47:12.820Z,8.40
2019-03-21T07:49:41.808Z,8.50
2019-03-21T07:52:11.180Z,8.50
2019-03-21T07:54:41.345Z,8.50
2019-03-21T07:57:11.030Z,8.50
2019-03-21T07:59:40.630Z,8.50
2019-03-21T08:02:11.367Z,8.50
2019-03-21T08:04:44.933Z,8.60
2019-03-21T08:07:16.437Z,8.60
2019-03-21T08:09:46.917Z,8.70
2019-03-21T08:12:16.377Z,8.80
2019-03-21T08:14:45.718Z,8.80
2019-03-21T08:17:15.701Z,8.80
2019-03-21T08:19:45.110Z,8.90
2019-03-21T08:22:17.637Z,8.80
2019-03-21T08:24:50.023Z,8.80
2019-03-21T08:27:19.821Z,8.90
2019-03-21T08:29:49.331Z,8.90
2019-03-21T08:32:19.946Z,8.90
2019-03-21T08:34:52.443Z,8.90
2019-03-21T08:37:23.339Z,8.90
2019-03-21T08:39:52.857Z,8.90
2019-03-21T08:42:24.699Z,9.00
2019-03-21T08:44:54.185Z,9.00
2019-03-21T08:47:23.617Z,9.00
2019-03-21T08:49:53.095Z,9.10
2019-03-21T08:52:23.315Z,9.10
2019-03-21T08:54:52.785Z,9.10
2019-03-21T08:57:22.412Z,9.10
2019-03-21T08:59:54.264Z,9.10
2019-03-21T09:02:24.140Z,9.20
2019-03-21T09:04:53.697Z,9.20
2019-03-21T09:07:23.129Z,9.20
2019-03-21T09:09:52.497Z,9.30
2019-03-21T09:12:22.607Z,9.30
2019-03-21T09:14:52.111Z,9.40
2019-03-21T09:17:21.570Z,9.40
2019-03-21T09:19:51.951Z,9.40
2019-03-21T09:22:21.483Z,9.40
2019-03-21T09:24:54.274Z,9.40
2019-03-21T09:27:23.993Z,9.40
2019-03-21T09:29:54.016Z,9.40
2019-03-21T09:32:25.091Z,9.30
2019-03-21T09:34:54.551Z,9.30
2019-03-21T09:37:24.713Z,9.30
2019-03-21T09:39:54.125Z,9.30
2019-03-21T09:42:24.367Z,9.40
2019-03-21T09:44:53.840Z,9.40
2019-03-21T09:47:24.689Z,9.40
2019-03-21T09:49:54.308Z,9.50
2019-03-21T09:52:23.938Z,9.60
2019-03-21T09:54:54.584Z,9.50
2019-03-21T09:57:24.315Z,9.60
2019-03-21T09:59:53.746Z,9.60
2019-03-21T10:02:24.297Z,9.60
2019-03-21T10:04:53.753Z,9.60
2019-03-21T10:07:23.350Z,9.60
2019-03-21T10:09:52.771Z,9.70
2019-03-21T10:12:22.107Z,9.60
2019-03-21T10:14:51.540Z,9.70
2019-03-21T10:17:22.390Z,9.70
2019-03-21T10:19:53.844Z,9.70
2019-03-21T10:22:23.558Z,9.70
2019-03-21T10:24:52.943Z,9.70
2019-03-21T10:27:33.991Z,9.60
2019-03-21T10:30:04.422Z,9.50
2019-03-21T10:32:34.290Z,9.50
2019-03-21T10:35:03.945Z,9.50
2019-03-21T10:37:33.292Z,9.50
2019-03-21T10:40:02.839Z,9.50
2019-03-21T10:42:32.229Z,9.50
2019-03-21T10:45:02.057Z,9.50
2019-03-21T10:47:35.109Z,9.60
2019-03-21T10:50:05.345Z,9.60
2019-03-21T10:52:34.860Z,9.60
2019-03-21T10:55:04.550Z,9.60
2019-03-21T10:57:35.452Z,9.60
2019-03-21T11:00:07.091Z,9.50
2019-03-21T11:02:36.521Z,9.50
2019-03-21T11:05:07.145Z,9.50
2019-03-21T11:07:36.819Z,9.60
2019-03-21T11:10:07.353Z,9.50
2019-03-21T11:12:36.882Z,9.50
2019-03-21T11:15:06.400Z,9.50
2019-03-21T11:17:36.092Z,9.60
2019-03-21T11:20:06.143Z,9.70
2019-03-21T11:22:35.601Z,9.70
2019-03-21T11:25:05.569Z,9.70
2019-03-21T11:27:35.043Z,9.70
2019-03-21T11:30:16.002Z,9.70
2019-03-21T11:32:39.271Z,9.60
2019-03-21T11:35:08.788Z,9.60
2019-03-21T11:37:38.468Z,9.60
2019-03-21T11:40:08.590Z,9.70
2019-03-21T11:42:38.897Z,9.70
2019-03-21T11:45:08.793Z,9.60
2019-03-21T11:47:41.990Z,9.70
2019-03-21T11:50:09.807Z,9.70
2019-03-21T11:52:41.117Z,9.70
2019-03-21T11:55:14.449Z,9.80
2019-03-21T11:57:47.876Z,9.90
2019-03-21T12:00:17.707Z,9.80
2019-03-21T12:02:47.941Z,9.80
2019-03-21T12:05:17.676Z,9.90
2019-03-21T12:07:47.182Z,9.90
2019-03-21T12:10:17.532Z,9.90
2019-03-21T12:12:47.075Z,9.90
2019-03-21T12:15:17.514Z,10.00
2019-03-21T12:17:47.760Z,10.00
2019-03-21T12:20:28.042Z,9.90
2019-03-21T12:22:57.997Z,9.90
2019-03-21T12:25:27.485Z,9.90
2019-03-21T12:28:08.719Z,10.00
2019-03-21T12:30:42.883Z,10.00
2019-03-21T12:33:12.332Z,10.10
2019-03-21T12:35:41.756Z,10.20
2019-03-21T12:38:11.153Z,10.10
2019-03-21T12:40:40.971Z,10.20
2019-03-21T12:43:10.406Z,10.20
2019-03-21T12:45:41.076Z,10.20
2019-03-21T12:48:10.496Z,10.20
2019-03-21T12:50:39.934Z,10.30
2019-03-21T12:53:09.727Z,10.40
2019-03-21T12:55:39.202Z,10.50
2019-03-21T12:58:11.728Z,10.50
2019-03-21T13:00:42.642Z,10.50
2019-03-21T13:03:12.449Z,10.60
2019-03-21T13:05:46.134Z,10.60
2019-03-21T13:08:15.662Z,10.50
2019-03-21T13:10:48.852Z,10.60
2019-03-21T13:13:18.266Z,10.60
2019-03-21T13:15:47.706Z,10.60
2019-03-21T13:18:17.208Z,10.60
2019-03-21T13:20:49.233Z,10.60
2019-03-21T13:23:18.676Z,10.50
2019-03-21T13:25:48.040Z,10.50
2019-03-21T13:28:17.510Z,10.50
2019-03-21T13:30:47.026Z,10.60
2019-03-21T13:33:16.964Z,10.60
2019-03-21T13:35:46.335Z,10.60
2019-03-21T13:38:16.047Z,10.60
2019-03-21T13:40:46.438Z,10.60
2019-03-21T13:43:16.169Z,10.60
2019-03-21T13:45:45.710Z,10.60
2019-03-21T13:48:15.161Z,10.60
2019-03-21T13:50:44.890Z,10.60
2019-03-21T13:53:18.970Z,10.70
2019-03-21T13:55:46.461Z,10.60
2019-03-21T13:58:18.236Z,10.60
2019-03-21T14:00:51.207Z,10.60
2019-03-21T14:03:25.254Z,10.70
2019-03-21T14:05:52.303Z,10.60
2019-03-21T14:08:25.026Z,10.70
2019-03-21T14:10:54.648Z,10.60
2019-03-21T14:13:24.066Z,10.50
2019-03-21T14:15:57.832Z,10.50
2019-03-21T14:18:27.747Z,10.40
2019-03-21T14:20:57.743Z,10.40
2019-03-21T14:23:27.089Z,10.40
2019-03-21T14:25:58.088Z,10.50
2019-03-21T14:28:27.555Z,10.60
2019-03-21T14:30:57.847Z,10.60
2019-03-21T14:33:27.255Z,10.60
2019-03-21T14:35:57.127Z,10.60
2019-03-21T14:38:27.999Z,10.60
2019-03-21T14:40:57.798Z,10.60
2019-03-21T14:43:27.517Z,10.60
2019-03-21T14:45:56.965Z,10.60
2019-03-21T14:48:26.710Z,10.50
2019-03-21T14:50:56.079Z,10.50
2019-03-21T14:53:29.160Z,10.50
2019-03-21T14:55:56.630Z,10.60
2019-03-21T14:58:28.395Z,10.60
2019-03-21T15:00:58.222Z,10.60
2019-03-21T15:03:27.710Z,10.50
2019-03-21T15:05:57.471Z,10.50
2019-03-21T15:08:26.950Z,10.50
2019-03-21T15:10:58.443Z,10.50
2019-03-21T15:13:29.521Z,10.40
2019-03-21T15:16:02.627Z,10.40
2019-03-21T15:18:32.591Z,10.40
2019-03-21T15:21:02.333Z,10.40
2019-03-21T15:23:40.209Z,10.40
2019-03-21T15:26:03.209Z,10.40
2019-03-21T15:28:35.617Z,10.40
2019-03-21T15:31:09.206Z,10.40
2019-03-21T15:33:38.809Z,10.40
2019-03-21T15:36:09.965Z,10.40
2019-03-21T15:38:39.747Z,10.30
2019-03-21T15:41:11.276Z,10.30
2019-03-21T15:43:40.746Z,10.40
2019-03-21T15:46:10.275Z,10.40
2019-03-21T15:48:39.957Z,10.30
2019-03-21T15:51:10.320Z,10.30
2019-03-21T15:53:53.236Z,10.30
2019-03-21T15:56:13.332Z,10.30
2019-03-21T15:58:43.138Z,10.30
2019-03-21T16:01:13.168Z,10.30
2019-03-21T16:03:42.962Z,10.30
2019-03-21T16:06:16.679Z,10.30
2019-03-21T16:08:46.964Z,10.20
2019-03-21T16:11:16.669Z,10.20
2019-03-21T16:13:46.955Z,10.20
2019-03-21T16:16:18.934Z,10.10
2019-03-21T16:18:49.329Z,10.10
2019-03-21T16:21:18.772Z,10.10
2019-03-21T16:23:48.149Z,10.10
2019-03-21T16:26:17.973Z,10.10
2019-03-21T16:28:47.530Z,10.00
2019-03-21T16:31:16.934Z,10.00
2019-03-21T16:33:46.674Z,9.90
2019-03-21T16:36:17.318Z,9.90
2019-03-21T16:38:47.222Z,9.90
2019-03-21T16:41:18.986Z,9.90
2019-03-21T16:43:48.633Z,9.90
2019-03-21T16:46:18.516Z,9.90
2019-03-21T16:48:49.672Z,9.90
2019-03-21T16:51:22.296Z,9.90
2019-03-21T16:53:52.733Z,9.90
2019-03-21T16:56:25.443Z,9.80
2019-03-21T16:58:55.744Z,9.80
2019-03-21T17:01:25.822Z,9.80
2019-03-21T17:03:55.257Z,9.80
2019-03-21T17:06:25.268Z,9.70
2019-03-21T17:08:55.137Z,9.70
2019-03-21T17:11:24.627Z,9.70
2019-03-21T17:13:54.103Z,9.70
2019-03-21T17:16:24.810Z,9.70
2019-03-21T17:18:55.210Z,9.60
2019-03-21T17:21:24.736Z,9.60
2019-03-21T17:23:54.612Z,9.60
2019-03-21T17:26:24.651Z,9.50
2019-03-21T17:28:54.056Z,9.40
2019-03-21T17:31:23.971Z,9.50
2019-03-21T17:33:57.771Z,9.40
2019-03-21T17:36:27.246Z,9.30
2019-03-21T17:38:58.348Z,9.30
2019-03-21T17:41:30.466Z,9.30
2019-03-21T17:44:02.370Z,9.20
2019-03-21T17:46:32.576Z,9.20
2019-03-21T17:49:02.050Z,9.20
2019-03-21T17:51:33.658Z,9.20
2019-03-21T17:54:03.213Z,9.10
2019-03-21T17:56:32.681Z,9.10
2019-03-21T17:59:02.226Z,9.20
2019-03-21T18:01:32.299Z,9.10
2019-03-21T18:04:02.221Z,9.10
2019-03-21T18:06:31.697Z,9.10
2019-03-21T18:09:02.050Z,9.10
2019-03-21T18:11:33.399Z,9.10
2019-03-21T18:14:02.972Z,9.10
2019-03-21T18:16:32.752Z,9.10
2019-03-21T18:19:06.128Z,9.10
2019-03-21T18:21:35.687Z,9.00
2019-03-21T18:24:05.708Z,9.00
2019-03-21T18:26:35.937Z,9.00
2019-03-21T18:29:05.422Z,9.00
2019-03-21T18:31:35.177Z,9.00
2019-03-21T18:34:04.658Z,9.00
2019-03-21T18:36:34.151Z,9.00
2019-03-21T18:39:06.867Z,9.00
2019-03-21T18:41:36.458Z,9.00
2019-03-21T18:44:06.067Z,9.00
2019-03-21T18:46:35.859Z,9.00
2019-03-21T18:49:05.396Z,9.00
2019-03-21T18:51:34.970Z,8.90
2019-03-21T18:54:05.364Z,9.00
2019-03-21T18:56:38.372Z,9.00
2019-03-21T18:59:07.977Z,9.00
2019-03-21T19:01:39.534Z,9.00
2019-03-21T19:04:08.996Z,9.00
2019-03-21T19:06:40.614Z,9.00
2019-03-21T19:09:10.974Z,9.00
2019-03-21T19:11:44.026Z,9.00
2019-03-21T19:14:14.345Z,9.00
2019-03-21T19:16:46.376Z,9.00
2019-03-21T19:19:19.607Z,9.00
2019-03-21T19:21:49.101Z,9.00
2019-03-21T19:24:18.652Z,9.00
2019-03-21T19:26:50.291Z,9.00
2019-03-21T19:29:19.937Z,9.00
2019-03-21T19:31:49.396Z,9.00
2019-03-21T19:34:19.911Z,9.00
2019-03-21T19:36:52.526Z,9.00
2019-03-21T19:39:23.059Z,9.00
2019-03-21T19:41:52.953Z,8.90
2019-03-21T19:44:22.661Z,9.00
2019-03-21T19:46:53.102Z,8.90
2019-03-21T19:49:24.272Z,8.90
2019-03-21T19:51:53.800Z,8.90
2019-03-21T19:54:23.199Z,8.90
2019-03-21T19:56:52.713Z,8.90
2019-03-21T19:59:22.240Z,8.90
2019-03-21T20:01:51.721Z,8.90
2019-03-21T20:04:21.210Z,8.90
2019-03-21T20:06:53.223Z,8.90
2019-03-21T20:09:22.814Z,8.90
2019-03-21T20:11:52.375Z,8.90
2019-03-21T20:14:23.392Z,8.90
2019-03-21T20:16:53.770Z,8.90
2019-03-21T20:19:23.306Z,8.90
2019-03-21T20:21:54.547Z,8.90
2019-03-21T20:24:24.348Z,8.90
2019-03-21T20:26:54.221Z,8.90
2019-03-21T20:29:23.761Z,8.90
2019-03-21T20:31:53.519Z,8.90
2019-03-21T20:34:23.634Z,8.90
2019-03-21T20:36:53.737Z,8.90
2019-03-21T20:39:23.570Z,8.90
2019-03-21T20:41:53.192Z,8.90
2019-03-21T20:44:24.521Z,8.80
2019-03-21T20:46:55.237Z,8.80
2019-03-21T20:49:24.996Z,8.80
2019-03-21T20:51:54.516Z,8.80
2019-03-21T20:54:24.362Z,8.80
2019-03-21T20:56:54.854Z,8.80
2019-03-21T20:59:24.391Z,8.80
2019-03-21T21:02:02.109Z,8.80
2019-03-21T21:04:25.269Z,8.80
2019-03-21T21:06:55.286Z,8.80
2019-03-21T21:09:26.395Z,8.80
2019-03-21T21:11:56.375Z,8.80
2019-03-21T21:14:25.963Z,8.80
2019-03-21T21:16:55.543Z,8.80
2019-03-21T21:19:25.197Z,8.80
2019-03-21T21:21:55.446Z,8.80
2019-03-21T21:24:24.886Z,8.70
2019-03-21T21:26:54.438Z,8.80
2019-03-21T21:29:24.225Z,8.80
2019-03-21T21:31:57.232Z,8.80
2019-03-21T21:34:27.128Z,8.80
2019-03-21T21:37:04.342Z,8.80
2019-03-21T21:39:36.131Z,8.80
2019-03-21T21:42:09.026Z,8.70
2019-03-21T21:44:38.564Z,8.80
2019-03-21T21:47:09.265Z,8.80
2019-03-21T21:49:45.682Z,8.80
2019-03-21T21:52:16.422Z,8.80
2019-03-21T21:54:49.355Z,8.80
2019-03-21T21:57:18.947Z,8.80
2019-03-21T21:59:49.260Z,8.80
2019-03-21T22:02:18.916Z,8.80
2019-03-21T22:04:48.593Z,8.80
2019-03-21T22:07:18.595Z,8.80
2019-03-21T22:09:50.947Z,8.70
2019-03-21T22:12:26.177Z,8.70
2019-03-21T22:14:55.985Z,8.80
2019-03-21T22:17:25.904Z,8.70
2019-03-21T22:19:55.552Z,8.70
2019-03-21T22:22:25.264Z,8.70
2019-03-21T22:24:57.411Z,8.70
2019-03-21T22:27:32.161Z,8.70
2019-03-21T22:30:04.470Z,8.70
2019-03-21T22:32:36.047Z,8.70
2019-03-21T22:35:06.280Z,8.70
2019-03-21T22:37:35.933Z,8.70
2019-03-21T22:40:07.369Z,8.70
2019-03-21T22:42:39.320Z,8.60
2019-03-21T22:45:09.720Z,8.70
2019-03-21T22:47:40.123Z,8.60
2019-03-21T22:50:14.610Z,8.60
2019-03-21T22:52:43.260Z,8.60
2019-03-21T22:55:12.988Z,8.60
2019-03-21T22:57:42.766Z,8.60
2019-03-21T23:00:16.226Z,8.70
2019-03-21T23:02:46.651Z,8.60
2019-03-21T23:05:19.642Z,8.60
2019-03-21T23:07:49.472Z,8.70
2019-03-21T23:10:19.329Z,8.70
2019-03-21T23:12:49.345Z,8.70
2019-03-21T23:15:18.799Z,8.70
2019-03-21T23:17:48.312Z,8.70
2019-03-21T23:20:17.857Z,8.70
2019-03-21T23:22:49.047Z,8.60
2019-03-21T23:25:20.197Z,8.70
2019-03-21T23:27:49.738Z,8.70
2019-03-21T23:30:19.476Z,8.70
2019-03-21T23:32:52.033Z,8.70
2019-03-21T23:35:21.479Z,8.70
2019-03-21T23:37:51.220Z,8.70
2019-03-21T23:40:21.210Z,8.70
2019-03-21T23:42:51.002Z,8.70
2019-03-21T23:45:20.562Z,8.70
2019-03-21T23:47:50.707Z,8.70
2019-03-21T23:50:20.110Z,8.60
2019-03-21T23:52:49.548Z,8.60
2019-03-21T23:55:19.322Z,8.60
2019-03-21T23:57:49.091Z,8.60
